sensor_id;sensor_type;location;lat;lon;timestamp;temperature;humidity
43320;DHT22;28914;48.722;9.332;2022-12-29T00:03:13;7.40;86.10
43320;DHT22;28914;48.722;9.332;2022-12-29T00:08:32;7.50;86.40
43320;DHT22;28914;48.722;9.332;2022-12-29T00:14:00;7.50;86.60
43320;DHT22;28914;48.722;9.332;2022-12-29T00:19:39;7.60;86.90
43320;DHT22;28914;48.722;9.332;2022-12-29T00:25:17;7.60;87.00
43320;DHT22;28914;48.722;9.332;2022-12-29T00:30:59;7.70;87.10
43320;DHT22;28914;48.722;9.332;2022-12-29T00:36:39;7.70;87.30
43320;DHT22;28914;48.722;9.332;2022-12-29T00:42:06;7.70;87.00
43320;DHT22;28914;48.722;9.332;2022-12-29T00:47:44;7.80;87.10
43320;DHT22;28914;48.722;9.332;2022-12-29T00:53:04;7.80;86.90
43320;DHT22;28914;48.722;9.332;2022-12-29T00:58:23;7.80;86.70
43320;DHT22;28914;48.722;9.332;2022-12-29T01:03:42;7.80;87.00
43320;DHT22;28914;48.722;9.332;2022-12-29T01:09:02;7.90;87.20
43320;DHT22;28914;48.722;9.332;2022-12-29T01:14:40;8.00;87.20
43320;DHT22;28914;48.722;9.332;2022-12-29T01:19:59;8.00;87.10
43320;DHT22;28914;48.722;9.332;2022-12-29T01:25:19;8.00;87.00
43320;DHT22;28914;48.722;9.332;2022-12-29T01:30:38;8.10;86.80
43320;DHT22;28914;48.722;9.332;2022-12-29T01:36:04;8.10;86.80
43320;DHT22;28914;48.722;9.332;2022-12-29T01:41:24;8.20;86.90
43320;DHT22;28914;48.722;9.332;2022-12-29T01:46:48;8.30;86.80
43320;DHT22;28914;48.722;9.332;2022-12-29T01:52:08;8.30;86.80
43320;DHT22;28914;48.722;9.332;2022-12-29T01:57:31;8.40;86.80
43320;DHT22;28914;48.722;9.332;2022-12-29T02:02:53;8.40;86.80
43320;DHT22;28914;48.722;9.332;2022-12-29T02:08:13;8.50;86.80
43320;DHT22;28914;48.722;9.332;2022-12-29T02:13:33;8.50;86.80
43320;DHT22;28914;48.722;9.332;2022-12-29T02:35:56;8.60;86.30
43320;DHT22;28914;48.722;9.332;2022-12-29T02:41:31;8.60;86.30
43320;DHT22;28914;48.722;9.332;2022-12-29T02:46:54;8.60;86.60
43320;DHT22;28914;48.722;9.332;2022-12-29T02:52:22;8.50;86.60
43320;DHT22;28914;48.722;9.332;2022-12-29T02:57:44;8.60;86.70
43320;DHT22;28914;48.722;9.332;2022-12-29T03:03:45;8.60;86.70
43320;DHT22;28914;48.722;9.332;2022-12-29T03:14:44;8.60;87.00
43320;DHT22;28914;48.722;9.332;2022-12-29T03:20:40;8.70;87.00
43320;DHT22;28914;48.722;9.332;2022-12-29T03:26:04;8.70;87.00
43320;DHT22;28914;48.722;9.332;2022-12-29T03:31:26;8.60;86.90
43320;DHT22;28914;48.722;9.332;2022-12-29T03:36:52;8.70;86.90
43320;DHT22;28914;48.722;9.332;2022-12-29T03:42:18;8.60;86.80
43320;DHT22;28914;48.722;9.332;2022-12-29T03:47:38;8.60;86.80
43320;DHT22;28914;48.722;9.332;2022-12-29T03:52:57;8.50;87.00
43320;DHT22;28914;48.722;9.332;2022-12-29T03:58:16;8.50;87.30
43320;DHT22;28914;48.722;9.332;2022-12-29T04:03:35;8.50;87.60
43320;DHT22;28914;48.722;9.332;2022-12-29T04:08:55;8.50;87.80
43320;DHT22;28914;48.722;9.332;2022-12-29T04:14:14;8.60;87.80
43320;DHT22;28914;48.722;9.332;2022-12-29T04:19:33;8.60;87.60
43320;DHT22;28914;48.722;9.332;2022-12-29T04:24:52;8.70;87.60
43320;DHT22;28914;48.722;9.332;2022-12-29T04:30:12;8.60;87.50
43320;DHT22;28914;48.722;9.332;2022-12-29T04:35:31;8.60;87.30
43320;DHT22;28914;48.722;9.332;2022-12-29T04:40:51;8.50;87.20
43320;DHT22;28914;48.722;9.332;2022-12-29T04:46:10;8.60;87.30
43320;DHT22;28914;48.722;9.332;2022-12-29T04:51:29;8.50;87.30
43320;DHT22;28914;48.722;9.332;2022-12-29T04:56:48;8.50;87.30
43320;DHT22;28914;48.722;9.332;2022-12-29T05:02:07;8.40;87.20
43320;DHT22;28914;48.722;9.332;2022-12-29T05:07:26;8.40;87.20
43320;DHT22;28914;48.722;9.332;2022-12-29T05:12:46;8.30;87.30
43320;DHT22;28914;48.722;9.332;2022-12-29T05:18:05;8.30;87.40
43320;DHT22;28914;48.722;9.332;2022-12-29T05:23:24;8.20;87.70
43320;DHT22;28914;48.722;9.332;2022-12-29T05:28:43;8.20;88.10
43320;DHT22;28914;48.722;9.332;2022-12-29T05:34:02;8.20;88.30
43320;DHT22;28914;48.722;9.332;2022-12-29T05:39:22;8.30;88.50
43320;DHT22;28914;48.722;9.332;2022-12-29T05:44:41;8.30;88.90
43320;DHT22;28914;48.722;9.332;2022-12-29T05:50:01;8.40;88.80
43320;DHT22;28914;48.722;9.332;2022-12-29T05:55:20;8.50;88.80
43320;DHT22;28914;48.722;9.332;2022-12-29T06:00:40;8.60;88.70
43320;DHT22;28914;48.722;9.332;2022-12-29T06:05:59;8.70;88.70
43320;DHT22;28914;48.722;9.332;2022-12-29T06:11:18;8.70;88.70
43320;DHT22;28914;48.722;9.332;2022-12-29T06:16:38;8.80;88.80
43320;DHT22;28914;48.722;9.332;2022-12-29T06:21:57;8.90;88.90
43320;DHT22;28914;48.722;9.332;2022-12-29T06:27:16;9.00;88.90
43320;DHT22;28914;48.722;9.332;2022-12-29T06:32:36;9.10;88.70
43320;DHT22;28914;48.722;9.332;2022-12-29T06:37:56;9.20;88.70
43320;DHT22;28914;48.722;9.332;2022-12-29T06:43:15;9.20;88.40
43320;DHT22;28914;48.722;9.332;2022-12-29T06:48:34;9.30;88.30
43320;DHT22;28914;48.722;9.332;2022-12-29T06:53:53;9.30;88.30
43320;DHT22;28914;48.722;9.332;2022-12-29T06:59:13;9.40;88.30
43320;DHT22;28914;48.722;9.332;2022-12-29T07:04:32;9.40;88.40
43320;DHT22;28914;48.722;9.332;2022-12-29T07:09:51;9.50;88.50
43320;DHT22;28914;48.722;9.332;2022-12-29T07:15:11;9.50;88.30
43320;DHT22;28914;48.722;9.332;2022-12-29T07:20:30;9.60;88.10
43320;DHT22;28914;48.722;9.332;2022-12-29T07:25:50;9.60;87.80
43320;DHT22;28914;48.722;9.332;2022-12-29T07:31:14;9.60;87.90
43320;DHT22;28914;48.722;9.332;2022-12-29T07:36:34;9.60;87.70
43320;DHT22;28914;48.722;9.332;2022-12-29T07:41:54;9.50;87.60
43320;DHT22;28914;48.722;9.332;2022-12-29T07:47:14;9.50;87.60
43320;DHT22;28914;48.722;9.332;2022-12-29T07:52:33;9.40;87.50
43320;DHT22;28914;48.722;9.332;2022-12-29T07:57:53;9.40;87.60
43320;DHT22;28914;48.722;9.332;2022-12-29T08:03:12;9.40;87.70
43320;DHT22;28914;48.722;9.332;2022-12-29T08:08:32;9.40;88.10
43320;DHT22;28914;48.722;9.332;2022-12-29T08:13:51;9.40;88.60
43320;DHT22;28914;48.722;9.332;2022-12-29T08:19:11;9.50;89.00
43320;DHT22;28914;48.722;9.332;2022-12-29T08:24:30;9.60;89.40
43320;DHT22;28914;48.722;9.332;2022-12-29T08:29:50;9.80;89.70
43320;DHT22;28914;48.722;9.332;2022-12-29T08:35:09;10.00;89.80
43320;DHT22;28914;48.722;9.332;2022-12-29T08:40:28;10.10;89.70
43320;DHT22;28914;48.722;9.332;2022-12-29T08:45:47;10.30;89.60
43320;DHT22;28914;48.722;9.332;2022-12-29T08:51:07;10.40;89.60
43320;DHT22;28914;48.722;9.332;2022-12-29T08:56:27;10.60;89.80
43320;DHT22;28914;48.722;9.332;2022-12-29T09:01:46;10.80;89.70
43320;DHT22;28914;48.722;9.332;2022-12-29T09:07:06;11.00;89.70
43320;DHT22;28914;48.722;9.332;2022-12-29T09:12:25;11.30;89.50
43320;DHT22;28914;48.722;9.332;2022-12-29T09:17:44;11.50;88.90
43320;DHT22;28914;48.722;9.332;2022-12-29T09:23:04;11.70;88.30
43320;DHT22;28914;48.722;9.332;2022-12-29T09:28:25;11.80;87.80
43320;DHT22;28914;48.722;9.332;2022-12-29T09:33:44;11.80;87.50
43320;DHT22;28914;48.722;9.332;2022-12-29T09:39:03;11.90;87.40
43320;DHT22;28914;48.722;9.332;2022-12-29T09:44:41;12.00;87.30
43320;DHT22;28914;48.722;9.332;2022-12-29T09:50:10;12.00;87.20
43320;DHT22;28914;48.722;9.332;2022-12-29T09:55:42;12.10;87.40
43320;DHT22;28914;48.722;9.332;2022-12-29T10:06:51;12.60;87.80
43320;DHT22;28914;48.722;9.332;2022-12-29T10:12:26;13.00;86.80
43320;DHT22;28914;48.722;9.332;2022-12-29T10:18:08;13.60;87.30
43320;DHT22;28914;48.722;9.332;2022-12-29T10:23:50;14.20;83.60
43320;DHT22;28914;48.722;9.332;2022-12-29T10:29:20;14.60;82.30
43320;DHT22;28914;48.722;9.332;2022-12-29T10:34:46;14.80;80.60
43320;DHT22;28914;48.722;9.332;2022-12-29T10:40:28;15.00;79.70
43320;DHT22;28914;48.722;9.332;2022-12-29T10:45:49;15.20;80.00
43320;DHT22;28914;48.722;9.332;2022-12-29T10:51:08;15.40;80.10
43320;DHT22;28914;48.722;9.332;2022-12-29T11:01:53;16.60;85.30
43320;DHT22;28914;48.722;9.332;2022-12-29T11:07:19;18.30;81.40
43320;DHT22;28914;48.722;9.332;2022-12-29T11:12:39;19.00;72.60
43320;DHT22;28914;48.722;9.332;2022-12-29T11:17:58;19.00;69.90
43320;DHT22;28914;48.722;9.332;2022-12-29T11:28:44;18.40;69.00
43320;DHT22;28914;48.722;9.332;2022-12-29T11:34:06;18.20;70.70
43320;DHT22;28914;48.722;9.332;2022-12-29T11:40:02;18.00;66.70
43320;DHT22;28914;48.722;9.332;2022-12-29T11:45:31;17.80;66.50
43320;DHT22;28914;48.722;9.332;2022-12-29T11:50:54;17.50;67.10
43320;DHT22;28914;48.722;9.332;2022-12-29T11:56:19;17.30;69.70
43320;DHT22;28914;48.722;9.332;2022-12-29T12:01:39;17.30;70.50
43320;DHT22;28914;48.722;9.332;2022-12-29T12:07:18;17.40;69.30
43320;DHT22;28914;48.722;9.332;2022-12-29T12:12:44;17.40;70.70
43320;DHT22;28914;48.722;9.332;2022-12-29T12:18:11;17.50;69.90
43320;DHT22;28914;48.722;9.332;2022-12-29T12:23:45;17.40;70.40
43320;DHT22;28914;48.722;9.332;2022-12-29T12:34:45;17.10;71.10
43320;DHT22;28914;48.722;9.332;2022-12-29T12:40:27;17.10;71.90
43320;DHT22;28914;48.722;9.332;2022-12-29T12:45:55;17.10;72.00
43320;DHT22;28914;48.722;9.332;2022-12-29T12:57:00;17.00;72.60
43320;DHT22;28914;48.722;9.332;2022-12-29T13:19:30;16.90;73.40
43320;DHT22;28914;48.722;9.332;2022-12-29T13:31:05;16.90;72.70
43320;DHT22;28914;48.722;9.332;2022-12-29T13:36:44;16.90;71.20
43320;DHT22;28914;48.722;9.332;2022-12-29T13:42:05;16.80;72.30
43320;DHT22;28914;48.722;9.332;2022-12-29T13:47:37;16.70;72.50
43320;DHT22;28914;48.722;9.332;2022-12-29T13:53:24;16.60;72.70
43320;DHT22;28914;48.722;9.332;2022-12-29T14:04:56;16.40;72.70
43320;DHT22;28914;48.722;9.332;2022-12-29T14:15:56;16.40;73.60
43320;DHT22;28914;48.722;9.332;2022-12-29T14:21:23;16.30;73.90
43320;DHT22;28914;48.722;9.332;2022-12-29T14:26:47;16.30;73.70
43320;DHT22;28914;48.722;9.332;2022-12-29T14:37:43;16.10;73.80
43320;DHT22;28914;48.722;9.332;2022-12-29T14:43:18;16.00;74.00
43320;DHT22;28914;48.722;9.332;2022-12-29T14:48:47;15.90;74.20
43320;DHT22;28914;48.722;9.332;2022-12-29T15:00:22;15.60;74.10
43320;DHT22;28914;48.722;9.332;2022-12-29T15:05:43;15.40;74.50
43320;DHT22;28914;48.722;9.332;2022-12-29T15:11:14;15.20;74.80
43320;DHT22;28914;48.722;9.332;2022-12-29T15:16:34;14.90;75.00
43320;DHT22;28914;48.722;9.332;2022-12-29T15:21:56;14.70;75.30
43320;DHT22;28914;48.722;9.332;2022-12-29T15:27:18;14.40;75.70
43320;DHT22;28914;48.722;9.332;2022-12-29T15:32:45;14.10;76.00
43320;DHT22;28914;48.722;9.332;2022-12-29T15:38:16;13.80;76.50
43320;DHT22;28914;48.722;9.332;2022-12-29T15:49:27;13.30;77.50
43320;DHT22;28914;48.722;9.332;2022-12-29T15:54:50;13.20;78.00
43320;DHT22;28914;48.722;9.332;2022-12-29T16:00:31;13.10;78.60
43320;DHT22;28914;48.722;9.332;2022-12-29T16:05:56;13.00;79.40
43320;DHT22;28914;48.722;9.332;2022-12-29T16:11:23;12.90;79.50
43320;DHT22;28914;48.722;9.332;2022-12-29T16:16:44;12.90;79.90
43320;DHT22;28914;48.722;9.332;2022-12-29T16:22:16;12.90;80.10
43320;DHT22;28914;48.722;9.332;2022-12-29T16:27:39;12.90;80.70
43320;DHT22;28914;48.722;9.332;2022-12-29T16:33:01;12.90;80.70
43320;DHT22;28914;48.722;9.332;2022-12-29T16:38:22;12.90;80.90
43320;DHT22;28914;48.722;9.332;2022-12-29T16:43:41;13.00;81.00
43320;DHT22;28914;48.722;9.332;2022-12-29T16:49:01;13.00;81.10
43320;DHT22;28914;48.722;9.332;2022-12-29T16:54:32;13.10;81.20
43320;DHT22;28914;48.722;9.332;2022-12-29T16:59:53;13.20;81.50
43320;DHT22;28914;48.722;9.332;2022-12-29T17:05:16;13.30;81.60
43320;DHT22;28914;48.722;9.332;2022-12-29T17:10:35;13.30;81.60
43320;DHT22;28914;48.722;9.332;2022-12-29T17:16:13;13.40;81.60
43320;DHT22;28914;48.722;9.332;2022-12-29T17:21:32;13.30;81.50
43320;DHT22;28914;48.722;9.332;2022-12-29T17:26:55;13.30;81.50
43320;DHT22;28914;48.722;9.332;2022-12-29T17:32:14;13.30;81.50
43320;DHT22;28914;48.722;9.332;2022-12-29T17:37:36;13.30;81.30
43320;DHT22;28914;48.722;9.332;2022-12-29T17:42:57;13.20;81.20
43320;DHT22;28914;48.722;9.332;2022-12-29T17:48:17;13.10;81.30
43320;DHT22;28914;48.722;9.332;2022-12-29T17:53:37;13.10;81.50
43320;DHT22;28914;48.722;9.332;2022-12-29T17:58:56;13.00;81.80
43320;DHT22;28914;48.722;9.332;2022-12-29T18:04:19;12.90;82.00
43320;DHT22;28914;48.722;9.332;2022-12-29T18:09:38;12.80;82.00
43320;DHT22;28914;48.722;9.332;2022-12-29T18:14:58;12.70;82.00
43320;DHT22;28914;48.722;9.332;2022-12-29T18:20:17;12.60;82.10
43320;DHT22;28914;48.722;9.332;2022-12-29T18:31:15;12.50;82.60
43320;DHT22;28914;48.722;9.332;2022-12-29T18:36:35;12.50;82.90
43320;DHT22;28914;48.722;9.332;2022-12-29T18:41:54;12.40;83.00
43320;DHT22;28914;48.722;9.332;2022-12-29T18:47:13;12.40;83.30
43320;DHT22;28914;48.722;9.332;2022-12-29T18:52:32;12.40;83.60
43320;DHT22;28914;48.722;9.332;2022-12-29T18:57:52;12.40;84.50
43320;DHT22;28914;48.722;9.332;2022-12-29T19:03:12;12.50;84.60
43320;DHT22;28914;48.722;9.332;2022-12-29T19:08:31;12.50;85.20
43320;DHT22;28914;48.722;9.332;2022-12-29T19:13:50;12.60;85.10
43320;DHT22;28914;48.722;9.332;2022-12-29T19:19:14;12.60;85.10
43320;DHT22;28914;48.722;9.332;2022-12-29T19:24:33;12.60;85.90
43320;DHT22;28914;48.722;9.332;2022-12-29T19:29:52;12.60;85.50
43320;DHT22;28914;48.722;9.332;2022-12-29T19:35:11;12.60;85.60
43320;DHT22;28914;48.722;9.332;2022-12-29T19:40:31;12.60;85.60
43320;DHT22;28914;48.722;9.332;2022-12-29T19:45:50;12.60;85.70
43320;DHT22;28914;48.722;9.332;2022-12-29T19:51:13;12.60;85.80
43320;DHT22;28914;48.722;9.332;2022-12-29T19:56:34;12.60;85.90
43320;DHT22;28914;48.722;9.332;2022-12-29T20:01:54;12.60;85.90
43320;DHT22;28914;48.722;9.332;2022-12-29T20:07:13;12.60;86.10
43320;DHT22;28914;48.722;9.332;2022-12-29T20:12:33;12.60;86.10
43320;DHT22;28914;48.722;9.332;2022-12-29T20:17:54;12.50;86.10
43320;DHT22;28914;48.722;9.332;2022-12-29T20:23:13;12.50;86.30
43320;DHT22;28914;48.722;9.332;2022-12-29T20:28:32;12.50;86.40
43320;DHT22;28914;48.722;9.332;2022-12-29T20:33:52;12.50;86.30
43320;DHT22;28914;48.722;9.332;2022-12-29T20:39:17;12.40;86.10
43320;DHT22;28914;48.722;9.332;2022-12-29T20:44:37;12.40;86.30
43320;DHT22;28914;48.722;9.332;2022-12-29T20:49:57;12.40;86.30
43320;DHT22;28914;48.722;9.332;2022-12-29T20:55:16;12.40;86.30
43320;DHT22;28914;48.722;9.332;2022-12-29T21:00:36;12.30;86.30
43320;DHT22;28914;48.722;9.332;2022-12-29T21:05:55;12.20;86.40
43320;DHT22;28914;48.722;9.332;2022-12-29T21:11:14;12.20;86.50
43320;DHT22;28914;48.722;9.332;2022-12-29T21:16:33;12.20;86.70
43320;DHT22;28914;48.722;9.332;2022-12-29T21:21:53;12.20;86.80
43320;DHT22;28914;48.722;9.332;2022-12-29T21:27:12;12.10;86.70
43320;DHT22;28914;48.722;9.332;2022-12-29T21:32:31;12.10;86.50
43320;DHT22;28914;48.722;9.332;2022-12-29T21:37:50;12.00;86.40
43320;DHT22;28914;48.722;9.332;2022-12-29T21:43:10;12.00;86.60
43320;DHT22;28914;48.722;9.332;2022-12-29T21:48:29;11.90;86.70
43320;DHT22;28914;48.722;9.332;2022-12-29T21:53:55;11.90;87.00
43320;DHT22;28914;48.722;9.332;2022-12-29T21:59:15;11.80;87.10
43320;DHT22;28914;48.722;9.332;2022-12-29T22:04:53;11.80;88.00
43320;DHT22;28914;48.722;9.332;2022-12-29T22:10:32;11.70;87.40
43320;DHT22;28914;48.722;9.332;2022-12-29T22:16:11;11.60;87.90
43320;DHT22;28914;48.722;9.332;2022-12-29T22:21:30;11.60;88.10
43320;DHT22;28914;48.722;9.332;2022-12-29T22:26:49;11.50;87.60
43320;DHT22;28914;48.722;9.332;2022-12-29T22:32:08;11.40;87.30
43320;DHT22;28914;48.722;9.332;2022-12-29T22:37:28;11.40;87.20
43320;DHT22;28914;48.722;9.332;2022-12-29T22:42:48;11.40;87.10
43320;DHT22;28914;48.722;9.332;2022-12-29T22:48:07;11.40;86.90
43320;DHT22;28914;48.722;9.332;2022-12-29T22:53:27;11.40;86.90
43320;DHT22;28914;48.722;9.332;2022-12-29T22:58:47;11.40;86.90
43320;DHT22;28914;48.722;9.332;2022-12-29T23:04:06;11.40;87.10
43320;DHT22;28914;48.722;9.332;2022-12-29T23:09:25;11.40;87.10
43320;DHT22;28914;48.722;9.332;2022-12-29T23:14:45;11.40;87.40
43320;DHT22;28914;48.722;9.332;2022-12-29T23:20:07;11.30;87.50
43320;DHT22;28914;48.722;9.332;2022-12-29T23:25:26;11.30;87.80
43320;DHT22;28914;48.722;9.332;2022-12-29T23:30:45;11.30;87.70
43320;DHT22;28914;48.722;9.332;2022-12-29T23:36:05;11.20;87.70
43320;DHT22;28914;48.722;9.332;2022-12-29T23:41:25;11.20;87.70
43320;DHT22;28914;48.722;9.332;2022-12-29T23:46:45;11.20;87.90
43320;DHT22;28914;48.722;9.332;2022-12-29T23:52:04;11.10;87.90
43320;DHT22;28914;48.722;9.332;2022-12-29T23:57:23;11.10;88.00
